Time,TemperatureF,DewpointF,PressureIn,WindDirection,WindDirectionDegrees,WindSpeedMPH,WindSpeedGustMPH,Humidity,HourlyPrecipIn,Conditions,Clouds,dailyrainin,SoftwareType,DateUTC
2013-02-17 00:01:00,27.0,7.0,-100.00,SE,130,6.0,18.0,41,-99.99,,,-99.99,,2013-02-17 07:01:00,
2013-02-17 00:11:00,27.0,7.0,-100.00,SE,130,6.0,18.0,41,-99.99,,,-99.99,,2013-02-17 07:11:00,
2013-02-17 00:21:00,27.0,7.0,-100.00,SE,130,7.0,29.0,41,-99.99,,,-99.99,,2013-02-17 07:21:00,
2013-02-17 00:31:00,27.0,7.0,-100.00,SE,130,7.0,29.0,41,-99.99,,,-99.99,,2013-02-17 07:31:00,
2013-02-17 00:41:00,27.0,7.0,-100.00,SE,125,9.0,25.0,41,-99.99,,,-99.99,,2013-02-17 07:41:00,
2013-02-17 00:52:00,27.0,7.0,-100.00,SE,125,9.0,25.0,41,-99.99,,,-99.99,,2013-02-17 07:52:00,
2013-02-17 01:01:00,27.0,7.0,-100.00,SE,125,14.0,32.0,41,-99.99,,,-99.99,,2013-02-17 08:01:00,
2013-02-17 01:11:00,27.0,7.0,-100.00,SE,125,14.0,32.0,41,-99.99,,,-99.99,,2013-02-17 08:11:00,
2013-02-17 01:21:00,27.0,6.0,-100.00,SE,125,9.0,27.0,41,-99.99,,,-99.99,,2013-02-17 08:21:00,
2013-02-17 01:32:00,27.0,6.0,-100.00,SE,125,9.0,27.0,41,-99.99,,,-99.99,,2013-02-17 08:32:00,
2013-02-17 01:42:00,26.0,6.0,-100.00,SE,125,9.0,20.0,41,-99.99,,,-99.99,,2013-02-17 08:42:00,
2013-02-17 01:52:00,26.0,6.0,-100.00,SE,125,9.0,20.0,41,-99.99,,,-99.99,,2013-02-17 08:52:00,
2013-02-17 02:01:00,26.0,6.0,-100.00,SE,125,5.0,13.0,41,-99.99,,,-99.99,,2013-02-17 09:01:00,
2013-02-17 02:11:00,26.0,6.0,-100.00,SE,125,5.0,13.0,41,-99.99,,,-99.99,,2013-02-17 09:11:00,
2013-02-17 02:21:00,25.0,5.0,-100.00,SE,125,5.0,9.0,41,-99.99,,,-99.99,,2013-02-17 09:21:00,
2013-02-17 02:31:00,25.0,5.0,-100.00,SE,125,5.0,9.0,41,-99.99,,,-99.99,,2013-02-17 09:31:00,
2013-02-17 02:41:00,24.0,4.0,-100.00,SE,135,0.0,4.0,43,-99.99,,,-99.99,,2013-02-17 09:41:00,
2013-02-17 02:52:00,24.0,4.0,-100.00,SE,135,0.0,4.0,43,-99.99,,,-99.99,,2013-02-17 09:52:00,
2013-02-17 03:01:00,23.0,4.0,-100.00,SE,135,1.0,3.0,43,-99.99,,,-99.99,,2013-02-17 10:01:00,
2013-02-17 03:11:00,23.0,4.0,-100.00,SE,135,1.0,3.0,43,-99.99,,,-99.99,,2013-02-17 10:11:00,
2013-02-17 03:21:00,24.0,4.0,-100.00,SE,135,2.0,4.0,43,-99.99,,,-99.99,,2013-02-17 10:21:00,
2013-02-17 03:31:00,24.0,4.0,-100.00,SE,135,2.0,4.0,43,-99.99,,,-99.99,,2013-02-17 10:31:00,
2013-02-17 03:41:00,22.0,4.0,-100.00,SE,135,2.0,6.0,44,-99.99,,,-99.99,,2013-02-17 10:41:00,
2013-02-17 03:52:00,22.0,4.0,-100.00,SE,135,2.0,6.0,44,-99.99,,,-99.99,,2013-02-17 10:52:00,
2013-02-17 04:01:00,21.0,3.0,-100.00,SE,140,4.0,5.0,44,-99.99,,,-99.99,,2013-02-17 11:01:00,
2013-02-17 04:11:00,21.0,3.0,-100.00,SE,140,4.0,5.0,44,-99.99,,,-99.99,,2013-02-17 11:11:00,
2013-02-17 04:21:00,22.0,3.0,-100.00,SE,135,1.0,4.0,43,-99.99,,,-99.99,,2013-02-17 11:21:00,
2013-02-17 04:32:00,22.0,3.0,-100.00,SE,135,1.0,4.0,43,-99.99,,,-99.99,,2013-02-17 11:32:00,
2013-02-17 04:42:00,22.0,3.0,-100.00,SE,135,1.0,4.0,43,-99.99,,,-99.99,,2013-02-17 11:42:00,
2013-02-17 04:52:00,22.0,3.0,-100.00,SE,135,1.0,4.0,43,-99.99,,,-99.99,,2013-02-17 11:52:00,
2013-02-17 05:03:00,21.0,2.0,-100.00,SE,135,1.0,-999.0,43,-99.99,,,-99.99,,2013-02-17 12:03:00,
2013-02-17 05:11:00,21.0,2.0,-100.00,SE,135,1.0,-999.0,43,-99.99,,,-99.99,,2013-02-17 12:11:00,
2013-02-17 05:22:00,22.0,2.0,-100.00,SE,125,4.0,-999.0,40,-99.99,,,-99.99,,2013-02-17 12:22:00,
2013-02-17 05:32:00,22.0,2.0,-100.00,SE,125,4.0,-999.0,40,-99.99,,,-99.99,,2013-02-17 12:32:00,
2013-02-17 05:42:00,26.0,4.0,-100.00,ESE,110,10.0,-999.0,37,-99.99,,,-99.99,,2013-02-17 12:42:00,
2013-02-17 05:52:00,26.0,4.0,-100.00,ESE,110,10.0,-999.0,37,-99.99,,,-99.99,,2013-02-17 12:52:00,
2013-02-17 06:02:00,26.0,4.0,-100.00,ESE,110,10.0,-999.0,37,-99.99,,,-99.99,,2013-02-17 13:02:00,
2013-02-17 06:12:00,26.0,4.0,-100.00,ESE,110,10.0,-999.0,37,-99.99,,,-99.99,,2013-02-17 13:12:00,
2013-02-17 06:21:00,29.0,2.0,-100.00,East,85,12.0,-999.0,31,-99.99,,,-99.99,,2013-02-17 13:21:00,
2013-02-17 06:32:00,29.0,2.0,-100.00,East,85,12.0,-999.0,31,-99.99,,,-99.99,,2013-02-17 13:32:00,
2013-02-17 06:42:00,29.0,2.0,-100.00,East,85,11.0,30.0,30,-99.99,,,-99.99,,2013-02-17 13:42:00,
2013-02-17 06:52:00,29.0,2.0,-100.00,East,85,11.0,30.0,30,-99.99,,,-99.99,,2013-02-17 13:52:00,
2013-02-17 07:01:00,30.0,2.0,-100.00,East,80,12.0,39.0,29,-99.99,,,-99.99,,2013-02-17 14:01:00,
2013-02-17 07:11:00,30.0,2.0,-100.00,East,80,12.0,39.0,29,-99.99,,,-99.99,,2013-02-17 14:11:00,
2013-02-17 07:21:00,30.0,2.0,-100.00,ENE,75,14.0,37.0,28,-99.99,,,-99.99,,2013-02-17 14:21:00,
2013-02-17 07:32:00,30.0,2.0,-100.00,ENE,75,14.0,37.0,28,-99.99,,,-99.99,,2013-02-17 14:32:00,
2013-02-17 07:42:00,31.0,2.0,-100.00,ENE,70,17.0,37.0,27,-99.99,,,-99.99,,2013-02-17 14:42:00,
2013-02-17 07:53:00,31.0,2.0,-100.00,ENE,70,17.0,37.0,27,-99.99,,,-99.99,,2013-02-17 14:53:00,
2013-02-17 08:02:00,32.0,1.0,-100.00,ENE,65,15.0,28.0,26,-99.99,,,-99.99,,2013-02-17 15:02:00,
2013-02-17 08:11:00,32.0,1.0,-100.00,ENE,65,15.0,28.0,26,-99.99,,,-99.99,,2013-02-17 15:11:00,
2013-02-17 08:21:00,31.0,1.0,-100.00,ENE,65,12.0,25.0,25,-99.99,,,-99.99,,2013-02-17 15:21:00,
2013-02-17 08:32:00,31.0,1.0,-100.00,ENE,65,12.0,25.0,25,-99.99,,,-99.99,,2013-02-17 15:32:00,
2013-02-17 08:41:00,33.0,1.0,-100.00,ENE,60,7.0,27.0,25,-99.99,,,-99.99,,2013-02-17 15:41:00,
2013-02-17 08:52:00,33.0,1.0,-100.00,ENE,60,7.0,27.0,25,-99.99,,,-99.99,,2013-02-17 15:52:00,
2013-02-17 09:01:00,36.0,3.0,-100.00,ENE,60,7.0,25.0,24,-99.99,,,-99.99,,2013-02-17 16:01:00,
2013-02-17 09:11:00,36.0,3.0,-100.00,ENE,60,7.0,25.0,24,-99.99,,,-99.99,,2013-02-17 16:11:00,
2013-02-17 09:21:00,36.0,3.0,-100.00,NE,55,14.0,36.0,23,-99.99,,,-99.99,,2013-02-17 16:21:00,
2013-02-17 09:32:00,36.0,3.0,-100.00,NE,55,14.0,36.0,23,-99.99,,,-99.99,,2013-02-17 16:32:00,
2013-02-17 09:42:00,37.0,3.0,-100.00,NE,55,13.0,27.0,23,-99.99,,,-99.99,,2013-02-17 16:42:00,
2013-02-17 09:52:00,37.0,3.0,-100.00,NE,55,13.0,27.0,23,-99.99,,,-99.99,,2013-02-17 16:52:00,
2013-02-17 10:02:00,37.0,4.0,-100.00,NE,55,17.0,25.0,24,-99.99,,,-99.99,,2013-02-17 17:02:00,
2013-02-17 10:11:00,37.0,4.0,-100.00,NE,55,17.0,25.0,24,-99.99,,,-99.99,,2013-02-17 17:11:00,
2013-02-17 10:21:00,38.0,4.0,-100.00,ENE,60,6.0,25.0,24,-99.99,,,-99.99,,2013-02-17 17:21:00,
2013-02-17 10:32:00,38.0,4.0,-100.00,ENE,60,6.0,25.0,24,-99.99,,,-99.99,,2013-02-17 17:32:00,
2013-02-17 10:41:00,37.0,4.0,-100.00,NE,55,12.0,28.0,24,-99.99,,,-99.99,,2013-02-17 17:41:00,
2013-02-17 10:52:00,37.0,4.0,-100.00,NE,55,12.0,28.0,24,-99.99,,,-99.99,,2013-02-17 17:52:00,
2013-02-17 11:02:00,37.0,4.0,-100.00,NE,55,9.0,27.0,24,-99.99,,,-99.99,,2013-02-17 18:02:00,
2013-02-17 11:11:00,37.0,4.0,-100.00,NE,55,9.0,27.0,24,-99.99,,,-99.99,,2013-02-17 18:11:00,
2013-02-17 11:22:00,39.0,5.0,-100.00,NE,55,7.0,25.0,23,-99.99,,,-99.99,,2013-02-17 18:22:00,
2013-02-17 11:33:00,39.0,5.0,-100.00,NE,55,7.0,25.0,23,-99.99,,,-99.99,,2013-02-17 18:33:00,
2013-02-17 11:42:00,39.0,4.0,-100.00,NE,50,8.0,25.0,22,-99.99,,,-99.99,,2013-02-17 18:42:00,
2013-02-17 11:52:00,39.0,4.0,-100.00,NE,50,8.0,25.0,22,-99.99,,,-99.99,,2013-02-17 18:52:00,
2013-02-17 12:01:00,38.0,3.0,-100.00,NE,50,7.0,32.0,22,-99.99,,,-99.99,,2013-02-17 19:01:00,
2013-02-17 12:11:00,38.0,3.0,-100.00,NE,50,7.0,32.0,22,-99.99,,,-99.99,,2013-02-17 19:11:00,
2013-02-17 12:21:00,37.0,3.0,-100.00,NE,50,7.0,31.0,23,-99.99,,,-99.99,,2013-02-17 19:21:00,
2013-02-17 12:32:00,37.0,3.0,-100.00,NE,50,7.0,31.0,23,-99.99,,,-99.99,,2013-02-17 19:32:00,
2013-02-17 12:42:00,39.0,4.0,-100.00,NE,50,7.0,23.0,23,-99.99,,,-99.99,,2013-02-17 19:42:00,
2013-02-17 12:52:00,39.0,4.0,-100.00,NE,50,7.0,23.0,23,-99.99,,,-99.99,,2013-02-17 19:52:00,
2013-02-17 13:02:00,40.0,6.0,-100.00,NE,55,4.0,11.0,23,-99.99,,,-99.99,,2013-02-17 20:02:00,
2013-02-17 13:11:00,40.0,6.0,-100.00,NE,55,4.0,11.0,23,-99.99,,,-99.99,,2013-02-17 20:11:00,
2013-02-17 13:21:00,39.0,5.0,-100.00,NE,55,4.0,27.0,23,-99.99,,,-99.99,,2013-02-17 20:21:00,
2013-02-17 13:32:00,39.0,5.0,-100.00,NE,55,4.0,27.0,23,-99.99,,,-99.99,,2013-02-17 20:32:00,
2013-02-17 13:42:00,39.0,5.0,-100.00,NE,55,6.0,22.0,23,-99.99,,,-99.99,,2013-02-17 20:42:00,
2013-02-17 13:52:00,39.0,5.0,-100.00,NE,55,6.0,22.0,23,-99.99,,,-99.99,,2013-02-17 20:52:00,
2013-02-17 14:02:00,40.0,6.0,-100.00,NE,55,7.0,19.0,23,-99.99,,,-99.99,,2013-02-17 21:02:00,
2013-02-17 14:11:00,40.0,6.0,-100.00,NE,55,7.0,19.0,23,-99.99,,,-99.99,,2013-02-17 21:11:00,
2013-02-17 14:21:00,39.0,5.0,-100.00,NE,55,6.0,21.0,23,-99.99,,,-99.99,,2013-02-17 21:21:00,
2013-02-17 14:32:00,39.0,5.0,-100.00,NE,55,6.0,21.0,23,-99.99,,,-99.99,,2013-02-17 21:32:00,
2013-02-17 14:42:00,39.0,5.0,-100.00,NE,55,8.0,27.0,23,-99.99,,,-99.99,,2013-02-17 21:42:00,
2013-02-17 14:53:00,39.0,5.0,-100.00,NE,55,8.0,27.0,23,-99.99,,,-99.99,,2013-02-17 21:53:00,
2013-02-17 15:01:00,38.0,5.0,-100.00,NE,55,6.0,16.0,24,-99.99,,,-99.99,,2013-02-17 22:01:00,
2013-02-17 15:12:00,38.0,5.0,-100.00,NE,55,6.0,16.0,24,-99.99,,,-99.99,,2013-02-17 22:12:00,
2013-02-17 15:21:00,37.0,4.0,-100.00,NE,55,8.0,25.0,24,-99.99,,,-99.99,,2013-02-17 22:21:00,
2013-02-17 15:32:00,37.0,4.0,-100.00,NE,55,8.0,25.0,24,-99.99,,,-99.99,,2013-02-17 22:32:00,
2013-02-17 15:42:00,37.0,4.0,-100.00,ENE,60,5.0,24.0,24,-99.99,,,-99.99,,2013-02-17 22:42:00,
2013-02-17 15:52:00,37.0,4.0,-100.00,ENE,60,5.0,24.0,24,-99.99,,,-99.99,,2013-02-17 22:52:00,
2013-02-17 16:02:00,35.0,3.0,-100.00,ENE,60,9.0,19.0,25,-99.99,,,-99.99,,2013-02-17 23:02:00,
2013-02-17 16:11:00,35.0,3.0,-100.00,ENE,60,9.0,19.0,25,-99.99,,,-99.99,,2013-02-17 23:11:00,
2013-02-17 16:21:00,35.0,3.0,-100.00,ENE,60,14.0,23.0,25,-99.99,,,-99.99,,2013-02-17 23:21:00,
2013-02-17 16:32:00,35.0,3.0,-100.00,ENE,60,14.0,23.0,25,-99.99,,,-99.99,,2013-02-17 23:32:00,
2013-02-17 16:42:00,33.0,2.0,-100.00,ENE,65,7.0,17.0,26,-99.99,,,-99.99,,2013-02-17 23:42:00,
2013-02-17 16:52:00,33.0,2.0,-100.00,ENE,65,7.0,17.0,26,-99.99,,,-99.99,,2013-02-17 23:52:00,
2013-02-17 17:01:00,32.0,2.0,-100.00,ENE,70,6.0,12.0,27,-99.99,,,-99.99,,2013-02-18 00:01:00,
2013-02-17 17:11:00,32.0,2.0,-100.00,ENE,70,6.0,12.0,27,-99.99,,,-99.99,,2013-02-18 00:11:00,
2013-02-17 17:22:00,31.0,2.0,-100.00,ENE,75,5.0,16.0,28,-99.99,,,-99.99,,2013-02-18 00:22:00,
2013-02-17 17:32:00,31.0,2.0,-100.00,ENE,75,5.0,16.0,28,-99.99,,,-99.99,,2013-02-18 00:32:00,
2013-02-17 17:41:00,31.0,3.0,-100.00,East,80,7.0,16.0,29,-99.99,,,-99.99,,2013-02-18 00:41:00,
2013-02-17 17:52:00,31.0,3.0,-100.00,East,80,7.0,16.0,29,-99.99,,,-99.99,,2013-02-18 00:52:00,
2013-02-17 18:01:00,30.0,3.0,-100.00,East,85,6.0,19.0,30,-99.99,,,-99.99,,2013-02-18 01:01:00,
2013-02-17 18:12:00,30.0,3.0,-100.00,East,85,6.0,19.0,30,-99.99,,,-99.99,,2013-02-18 01:12:00,
2013-02-17 18:21:00,30.0,4.0,-100.00,East,90,9.0,-999.0,32,-99.99,,,-99.99,,2013-02-18 01:21:00,
2013-02-17 18:32:00,30.0,4.0,-100.00,East,90,9.0,-999.0,32,-99.99,,,-99.99,,2013-02-18 01:32:00,
2013-02-17 18:41:00,29.0,4.0,-100.00,East,95,9.0,17.0,34,-99.99,,,-99.99,,2013-02-18 01:41:00,
2013-02-17 18:52:00,29.0,4.0,-100.00,East,95,9.0,17.0,34,-99.99,,,-99.99,,2013-02-18 01:52:00,
2013-02-17 19:01:00,29.0,4.0,-100.00,East,100,4.0,13.0,35,-99.99,,,-99.99,,2013-02-18 02:01:00,
2013-02-17 19:11:00,29.0,4.0,-100.00,East,100,4.0,13.0,35,-99.99,,,-99.99,,2013-02-18 02:11:00,
2013-02-17 19:21:00,28.0,5.0,-100.00,ESE,105,8.0,16.0,35,-99.99,,,-99.99,,2013-02-18 02:21:00,
2013-02-17 19:32:00,28.0,5.0,-100.00,ESE,105,8.0,16.0,35,-99.99,,,-99.99,,2013-02-18 02:32:00,
2013-02-17 19:41:00,29.0,5.0,-100.00,ESE,105,6.0,26.0,35,-99.99,,,-99.99,,2013-02-18 02:41:00,
2013-02-17 19:52:00,29.0,5.0,-100.00,ESE,105,6.0,26.0,35,-99.99,,,-99.99,,2013-02-18 02:52:00,
2013-02-17 20:01:00,28.0,5.0,-100.00,ESE,105,5.0,27.0,36,-99.99,,,-99.99,,2013-02-18 03:01:00,
2013-02-17 20:11:00,28.0,5.0,-100.00,ESE,105,5.0,27.0,36,-99.99,,,-99.99,,2013-02-18 03:11:00,
2013-02-17 20:21:00,27.0,5.0,-100.00,ESE,115,6.0,16.0,38,-99.99,,,-99.99,,2013-02-18 03:21:00,
2013-02-17 20:32:00,27.0,5.0,-100.00,ESE,115,6.0,16.0,38,-99.99,,,-99.99,,2013-02-18 03:32:00,
2013-02-17 20:42:00,26.0,6.0,-100.00,SE,125,6.0,17.0,41,-99.99,,,-99.99,,2013-02-18 03:42:00,
2013-02-17 20:52:00,26.0,6.0,-100.00,SE,125,6.0,17.0,41,-99.99,,,-99.99,,2013-02-18 03:52:00,
2013-02-17 21:01:00,25.0,6.0,-100.00,SE,140,6.0,14.0,45,-99.99,,,-99.99,,2013-02-18 04:01:00,
2013-02-17 21:11:00,25.0,6.0,-100.00,SE,140,6.0,14.0,45,-99.99,,,-99.99,,2013-02-18 04:11:00,
2013-02-17 21:21:00,24.0,8.0,-100.00,SSE,160,2.0,15.0,49,-99.99,,,-99.99,,2013-02-18 04:21:00,
2013-02-17 21:32:00,24.0,8.0,-100.00,SSE,160,2.0,15.0,49,-99.99,,,-99.99,,2013-02-18 04:32:00,
2013-02-17 21:41:00,23.0,9.0,-100.00,South,175,7.0,20.0,54,-99.99,,,-99.99,,2013-02-18 04:41:00,
2013-02-17 21:52:00,23.0,9.0,-100.00,South,175,7.0,20.0,54,-99.99,,,-99.99,,2013-02-18 04:52:00,
2013-02-17 22:02:00,22.0,10.0,-100.00,SSW,200,5.0,11.0,59,-99.99,,,-99.99,,2013-02-18 05:02:00,
2013-02-17 22:11:00,22.0,10.0,-100.00,SSW,200,5.0,11.0,59,-99.99,,,-99.99,,2013-02-18 05:11:00,
2013-02-17 22:21:00,21.0,10.0,-100.00,SSW,210,6.0,12.0,62,-99.99,,,-99.99,,2013-02-18 05:21:00,
2013-02-17 22:31:00,21.0,10.0,-100.00,SSW,210,6.0,12.0,62,-99.99,,,-99.99,,2013-02-18 05:31:00,
2013-02-17 22:41:00,21.0,10.0,-100.00,SSW,210,3.0,-999.0,62,-99.99,,,-99.99,,2013-02-18 05:41:00,
2013-02-17 22:52:00,21.0,10.0,-100.00,SSW,210,3.0,-999.0,62,-99.99,,,-99.99,,2013-02-18 05:52:00,
2013-02-17 23:02:00,19.0,9.0,-100.00,SW,215,8.0,18.0,63,-99.99,,,-99.99,,2013-02-18 06:02:00,
2013-02-17 23:11:00,19.0,9.0,-100.00,SW,215,8.0,18.0,63,-99.99,,,-99.99,,2013-02-18 06:11:00,
2013-02-17 23:21:00,19.0,9.0,-100.00,SW,215,8.0,18.0,63,-99.99,,,-99.99,,2013-02-18 06:21:00,
2013-02-17 23:32:00,19.0,9.0,-100.00,SW,215,8.0,18.0,63,-99.99,,,-99.99,,2013-02-18 06:32:00,
2013-02-17 23:41:00,18.0,7.0,-100.00,SSW,210,7.0,-999.0,62,-99.99,,,-99.99,,2013-02-18 06:41:00,
2013-02-17 23:52:00,18.0,7.0,-100.00,SSW,210,7.0,-999.0,62,-99.99,,,-99.99,,2013-02-18 06:52:00,